sensor_id;sensor_type;location;lat;lon;timestamp;P1;durP1;ratioP1;P2;durP2;ratioP2
39482;SDS011;25682;48.438;1.482;2022-09-03T00:02:21;4.13;;;2.30;;
39482;SDS011;25682;48.438;1.482;2022-09-03T00:13:20;4.72;;;2.20;;
39482;SDS011;25682;48.438;1.482;2022-09-03T00:15:47;2.80;;;2.20;;
39482;SDS011;25682;48.438;1.482;2022-09-03T00:18:15;3.80;;;2.28;;
39482;SDS011;25682;48.438;1.482;2022-09-03T00:20:45;7.03;;;2.83;;
39482;SDS011;25682;48.438;1.482;2022-09-03T00:23:17;6.80;;;2.78;;
39482;SDS011;25682;48.438;1.482;2022-09-03T00:28:12;4.15;;;2.30;;
39482;SDS011;25682;48.438;1.482;2022-09-03T00:30:40;4.10;;;2.20;;
39482;SDS011;25682;48.438;1.482;2022-09-03T00:33:10;3.38;;;2.80;;
39482;SDS011;25682;48.438;1.482;2022-09-03T00:35:42;4.57;;;2.45;;
39482;SDS011;25682;48.438;1.482;2022-09-03T00:38:09;2.97;;;2.13;;
39482;SDS011;25682;48.438;1.482;2022-09-03T00:40:44;2.72;;;2.30;;
39482;SDS011;25682;48.438;1.482;2022-09-03T00:48:31;4.18;;;2.40;;
39482;SDS011;25682;48.438;1.482;2022-09-03T00:53:37;2.78;;;2.28;;
39482;SDS011;25682;48.438;1.482;2022-09-03T01:27:40;3.95;;;1.75;;
39482;SDS011;25682;48.438;1.482;2022-09-03T01:30:09;3.60;;;2.10;;
39482;SDS011;25682;48.438;1.482;2022-09-03T01:40:25;2.05;;;1.77;;
39482;SDS011;25682;48.438;1.482;2022-09-03T01:42:58;3.03;;;1.88;;
39482;SDS011;25682;48.438;1.482;2022-09-03T01:57:56;4.63;;;1.90;;
39482;SDS011;25682;48.438;1.482;2022-09-03T02:00:24;5.75;;;2.10;;
39482;SDS011;25682;48.438;1.482;2022-09-03T02:02:51;2.25;;;1.60;;
39482;SDS011;25682;48.438;1.482;2022-09-03T02:05:24;1.95;;;1.75;;
39482;SDS011;25682;48.438;1.482;2022-09-03T02:10:21;3.33;;;2.10;;
39482;SDS011;25682;48.438;1.482;2022-09-03T02:12:52;2.53;;;1.83;;
39482;SDS011;25682;48.438;1.482;2022-09-03T02:15:20;1.95;;;1.65;;
39482;SDS011;25682;48.438;1.482;2022-09-03T02:17:47;2.25;;;1.70;;
39482;SDS011;25682;48.438;1.482;2022-09-03T02:20:21;2.22;;;1.95;;
39482;SDS011;25682;48.438;1.482;2022-09-03T02:22:47;2.42;;;1.60;;
39482;SDS011;25682;48.438;1.482;2022-09-03T02:25:15;1.92;;;1.70;;
39482;SDS011;25682;48.438;1.482;2022-09-03T02:27:41;4.28;;;1.88;;
39482;SDS011;25682;48.438;1.482;2022-09-03T02:30:08;2.67;;;1.70;;
39482;SDS011;25682;48.438;1.482;2022-09-03T02:32:34;2.47;;;1.60;;
39482;SDS011;25682;48.438;1.482;2022-09-03T02:35:00;2.97;;;1.90;;
39482;SDS011;25682;48.438;1.482;2022-09-03T02:37:26;4.22;;;1.92;;
39482;SDS011;25682;48.438;1.482;2022-09-03T02:39:52;5.00;;;2.05;;
39482;SDS011;25682;48.438;1.482;2022-09-03T02:42:18;2.65;;;1.80;;
39482;SDS011;25682;48.438;1.482;2022-09-03T02:44:46;1.67;;;1.30;;
39482;SDS011;25682;48.438;1.482;2022-09-03T02:47:13;3.38;;;1.73;;
39482;SDS011;25682;48.438;1.482;2022-09-03T02:49:39;2.10;;;1.70;;
39482;SDS011;25682;48.438;1.482;2022-09-03T02:52:06;2.45;;;1.92;;
39482;SDS011;25682;48.438;1.482;2022-09-03T02:54:36;2.53;;;1.52;;
39482;SDS011;25682;48.438;1.482;2022-09-03T02:57:09;2.90;;;1.88;;
39482;SDS011;25682;48.438;1.482;2022-09-03T02:59:35;3.28;;;2.00;;
39482;SDS011;25682;48.438;1.482;2022-09-03T03:02:02;2.67;;;1.60;;
39482;SDS011;25682;48.438;1.482;2022-09-03T03:04:28;2.35;;;1.60;;
39482;SDS011;25682;48.438;1.482;2022-09-03T03:06:54;4.70;;;2.03;;
39482;SDS011;25682;48.438;1.482;2022-09-03T03:09:20;3.15;;;1.60;;
39482;SDS011;25682;48.438;1.482;2022-09-03T03:11:46;2.03;;;1.33;;
39482;SDS011;25682;48.438;1.482;2022-09-03T03:14:15;15.38;;;2.00;;
39482;SDS011;25682;48.438;1.482;2022-09-03T03:16:41;3.05;;;1.50;;
39482;SDS011;25682;48.438;1.482;2022-09-03T03:19:07;2.67;;;1.70;;
39482;SDS011;25682;48.438;1.482;2022-09-03T03:21:33;3.65;;;1.45;;
39482;SDS011;25682;48.438;1.482;2022-09-03T03:24:00;1.80;;;1.40;;
39482;SDS011;25682;48.438;1.482;2022-09-03T03:26:26;3.65;;;1.60;;
39482;SDS011;25682;48.438;1.482;2022-09-03T03:28:56;2.35;;;1.40;;
39482;SDS011;25682;48.438;1.482;2022-09-03T03:31:22;2.63;;;1.65;;
39482;SDS011;25682;48.438;1.482;2022-09-03T03:33:52;2.28;;;1.70;;
39482;SDS011;25682;48.438;1.482;2022-09-03T03:36:19;1.75;;;1.40;;
39482;SDS011;25682;48.438;1.482;2022-09-03T03:38:45;4.00;;;1.80;;
39482;SDS011;25682;48.438;1.482;2022-09-03T03:43:40;2.80;;;1.45;;
39482;SDS011;25682;48.438;1.482;2022-09-03T03:46:07;2.50;;;1.65;;
39482;SDS011;25682;48.438;1.482;2022-09-03T03:48:34;2.08;;;1.52;;
39482;SDS011;25682;48.438;1.482;2022-09-03T03:51:00;5.00;;;1.58;;
39482;SDS011;25682;48.438;1.482;2022-09-03T03:53:28;4.65;;;1.60;;
39482;SDS011;25682;48.438;1.482;2022-09-03T03:55:55;1.90;;;1.50;;
39482;SDS011;25682;48.438;1.482;2022-09-03T03:58:21;2.20;;;1.60;;
39482;SDS011;25682;48.438;1.482;2022-09-03T04:00:48;3.38;;;1.40;;
39482;SDS011;25682;48.438;1.482;2022-09-03T04:03:14;1.65;;;1.48;;
39482;SDS011;25682;48.438;1.482;2022-09-03T04:05:40;5.35;;;2.03;;
39482;SDS011;25682;48.438;1.482;2022-09-03T04:08:06;4.68;;;1.80;;
39482;SDS011;25682;48.438;1.482;2022-09-03T04:10:32;3.03;;;1.90;;
39482;SDS011;25682;48.438;1.482;2022-09-03T04:12:58;2.70;;;1.50;;
39482;SDS011;25682;48.438;1.482;2022-09-03T04:15:25;11.55;;;1.90;;
39482;SDS011;25682;48.438;1.482;2022-09-03T04:17:53;1.65;;;1.23;;
39482;SDS011;25682;48.438;1.482;2022-09-03T04:20:19;1.92;;;1.70;;
39482;SDS011;25682;48.438;1.482;2022-09-03T04:22:45;2.83;;;1.60;;
39482;SDS011;25682;48.438;1.482;2022-09-03T04:25:11;3.47;;;1.27;;
39482;SDS011;25682;48.438;1.482;2022-09-03T04:27:37;2.60;;;1.90;;
39482;SDS011;25682;48.438;1.482;2022-09-03T04:30:03;2.10;;;1.40;;
39482;SDS011;25682;48.438;1.482;2022-09-03T04:32:29;5.18;;;1.80;;
39482;SDS011;25682;48.438;1.482;2022-09-03T04:35:14;3.85;;;1.67;;
39482;SDS011;25682;48.438;1.482;2022-09-03T04:37:40;2.97;;;1.80;;
39482;SDS011;25682;48.438;1.482;2022-09-03T04:40:06;1.55;;;1.35;;
39482;SDS011;25682;48.438;1.482;2022-09-03T04:42:32;3.55;;;1.65;;
39482;SDS011;25682;48.438;1.482;2022-09-03T04:44:58;2.47;;;1.60;;
39482;SDS011;25682;48.438;1.482;2022-09-03T04:47:25;3.90;;;1.60;;
39482;SDS011;25682;48.438;1.482;2022-09-03T04:49:52;2.72;;;1.67;;
39482;SDS011;25682;48.438;1.482;2022-09-03T04:52:19;4.03;;;1.40;;
39482;SDS011;25682;48.438;1.482;2022-09-03T04:54:45;2.65;;;1.70;;
39482;SDS011;25682;48.438;1.482;2022-09-03T04:57:11;1.98;;;1.60;;
39482;SDS011;25682;48.438;1.482;2022-09-03T04:59:37;4.32;;;1.50;;
39482;SDS011;25682;48.438;1.482;2022-09-03T05:02:05;6.18;;;1.40;;
39482;SDS011;25682;48.438;1.482;2022-09-03T05:04:31;3.30;;;1.52;;
39482;SDS011;25682;48.438;1.482;2022-09-03T05:06:57;1.40;;;1.25;;
39482;SDS011;25682;48.438;1.482;2022-09-03T05:09:23;2.65;;;1.42;;
39482;SDS011;25682;48.438;1.482;2022-09-03T05:11:49;2.05;;;1.55;;
39482;SDS011;25682;48.438;1.482;2022-09-03T05:14:15;4.00;;;1.73;;
39482;SDS011;25682;48.438;1.482;2022-09-03T05:16:41;2.10;;;1.60;;
39482;SDS011;25682;48.438;1.482;2022-09-03T05:19:06;3.22;;;1.60;;
39482;SDS011;25682;48.438;1.482;2022-09-03T05:21:33;3.80;;;1.88;;
39482;SDS011;25682;48.438;1.482;2022-09-03T05:24:03;5.72;;;2.10;;
39482;SDS011;25682;48.438;1.482;2022-09-03T05:26:30;6.25;;;2.13;;
39482;SDS011;25682;48.438;1.482;2022-09-03T05:28:58;9.27;;;2.35;;
39482;SDS011;25682;48.438;1.482;2022-09-03T05:31:24;6.07;;;2.17;;
39482;SDS011;25682;48.438;1.482;2022-09-03T05:33:52;3.25;;;2.50;;
39482;SDS011;25682;48.438;1.482;2022-09-03T05:36:20;4.30;;;2.00;;
39482;SDS011;25682;48.438;1.482;2022-09-03T05:38:47;3.10;;;2.08;;
39482;SDS011;25682;48.438;1.482;2022-09-03T05:41:13;4.32;;;2.30;;
39482;SDS011;25682;48.438;1.482;2022-09-03T05:43:40;3.38;;;2.20;;
39482;SDS011;25682;48.438;1.482;2022-09-03T05:46:10;5.55;;;1.92;;
39482;SDS011;25682;48.438;1.482;2022-09-03T05:48:37;4.57;;;2.15;;
39482;SDS011;25682;48.438;1.482;2022-09-03T05:51:04;15.13;;;2.15;;
39482;SDS011;25682;48.438;1.482;2022-09-03T05:53:32;2.78;;;2.05;;
39482;SDS011;25682;48.438;1.482;2022-09-03T05:55:59;4.80;;;1.77;;
39482;SDS011;25682;48.438;1.482;2022-09-03T05:58:31;2.33;;;1.77;;
39482;SDS011;25682;48.438;1.482;2022-09-03T06:00:58;5.28;;;2.25;;
39482;SDS011;25682;48.438;1.482;2022-09-03T06:03:24;3.05;;;1.90;;
39482;SDS011;25682;48.438;1.482;2022-09-03T06:05:51;3.47;;;1.95;;
39482;SDS011;25682;48.438;1.482;2022-09-03T06:08:18;2.15;;;1.80;;
39482;SDS011;25682;48.438;1.482;2022-09-03T06:10:44;16.30;;;1.92;;
39482;SDS011;25682;48.438;1.482;2022-09-03T06:13:10;4.10;;;1.48;;
39482;SDS011;25682;48.438;1.482;2022-09-03T06:15:36;2.65;;;1.50;;
39482;SDS011;25682;48.438;1.482;2022-09-03T06:18:03;2.03;;;1.40;;
39482;SDS011;25682;48.438;1.482;2022-09-03T06:20:29;9.18;;;2.70;;
39482;SDS011;25682;48.438;1.482;2022-09-03T06:22:56;8.68;;;2.20;;
39482;SDS011;25682;48.438;1.482;2022-09-03T06:25:22;3.17;;;1.55;;
39482;SDS011;25682;48.438;1.482;2022-09-03T06:27:48;3.85;;;1.40;;
39482;SDS011;25682;48.438;1.482;2022-09-03T06:30:14;2.88;;;1.80;;
39482;SDS011;25682;48.438;1.482;2022-09-03T06:32:46;6.45;;;1.98;;
39482;SDS011;25682;48.438;1.482;2022-09-03T06:35:14;4.47;;;1.65;;
39482;SDS011;25682;48.438;1.482;2022-09-03T06:37:40;3.35;;;1.10;;
39482;SDS011;25682;48.438;1.482;2022-09-03T06:40:06;1.73;;;1.20;;
39482;SDS011;25682;48.438;1.482;2022-09-03T06:42:36;16.08;;;1.60;;
39482;SDS011;25682;48.438;1.482;2022-09-03T06:45:02;3.35;;;1.50;;
39482;SDS011;25682;48.438;1.482;2022-09-03T06:47:28;5.28;;;1.85;;
39482;SDS011;25682;48.438;1.482;2022-09-03T06:49:55;3.08;;;1.67;;
39482;SDS011;25682;48.438;1.482;2022-09-03T06:52:24;5.78;;;2.00;;
39482;SDS011;25682;48.438;1.482;2022-09-03T06:54:50;5.45;;;1.38;;
39482;SDS011;25682;48.438;1.482;2022-09-03T06:57:16;11.10;;;1.80;;
39482;SDS011;25682;48.438;1.482;2022-09-03T06:59:42;3.60;;;1.95;;
39482;SDS011;25682;48.438;1.482;2022-09-03T07:02:08;9.77;;;1.60;;
39482;SDS011;25682;48.438;1.482;2022-09-03T07:04:34;2.83;;;1.60;;
39482;SDS011;25682;48.438;1.482;2022-09-03T07:07:00;4.32;;;1.60;;
39482;SDS011;25682;48.438;1.482;2022-09-03T07:09:26;11.57;;;1.88;;
39482;SDS011;25682;48.438;1.482;2022-09-03T07:11:53;5.07;;;2.08;;
39482;SDS011;25682;48.438;1.482;2022-09-03T07:14:19;8.43;;;2.00;;
39482;SDS011;25682;48.438;1.482;2022-09-03T07:16:46;4.65;;;1.52;;
39482;SDS011;25682;48.438;1.482;2022-09-03T07:19:13;4.55;;;1.92;;
39482;SDS011;25682;48.438;1.482;2022-09-03T07:21:40;4.75;;;1.70;;
39482;SDS011;25682;48.438;1.482;2022-09-03T07:24:06;4.80;;;2.15;;
39482;SDS011;25682;48.438;1.482;2022-09-03T07:26:34;6.68;;;1.92;;
39482;SDS011;25682;48.438;1.482;2022-09-03T07:29:00;6.90;;;1.60;;
39482;SDS011;25682;48.438;1.482;2022-09-03T07:31:27;7.20;;;1.70;;
39482;SDS011;25682;48.438;1.482;2022-09-03T07:33:54;20.92;;;1.98;;
39482;SDS011;25682;48.438;1.482;2022-09-03T07:36:20;8.18;;;1.92;;
39482;SDS011;25682;48.438;1.482;2022-09-03T07:38:46;24.75;;;2.35;;
39482;SDS011;25682;48.438;1.482;2022-09-03T07:41:13;7.75;;;2.72;;
39482;SDS011;25682;48.438;1.482;2022-09-03T07:46:07;4.53;;;1.88;;
39482;SDS011;25682;48.438;1.482;2022-09-03T07:48:37;4.90;;;1.73;;
39482;SDS011;25682;48.438;1.482;2022-09-03T07:51:03;10.48;;;5.90;;
39482;SDS011;25682;48.438;1.482;2022-09-03T07:53:29;6.32;;;2.92;;
39482;SDS011;25682;48.438;1.482;2022-09-03T07:56:01;5.60;;;2.60;;
39482;SDS011;25682;48.438;1.482;2022-09-03T07:58:28;8.25;;;2.97;;
39482;SDS011;25682;48.438;1.482;2022-09-03T08:00:55;7.32;;;3.50;;
39482;SDS011;25682;48.438;1.482;2022-09-03T08:03:21;11.43;;;4.32;;
39482;SDS011;25682;48.438;1.482;2022-09-03T08:05:47;9.02;;;3.35;;
39482;SDS011;25682;48.438;1.482;2022-09-03T08:08:13;9.25;;;3.63;;
39482;SDS011;25682;48.438;1.482;2022-09-03T08:10:41;7.15;;;3.78;;
39482;SDS011;25682;48.438;1.482;2022-09-03T08:13:08;9.43;;;4.60;;
39482;SDS011;25682;48.438;1.482;2022-09-03T08:15:35;8.80;;;3.58;;
39482;SDS011;25682;48.438;1.482;2022-09-03T08:18:04;5.97;;;3.00;;
39482;SDS011;25682;48.438;1.482;2022-09-03T08:20:30;5.78;;;3.30;;
39482;SDS011;25682;48.438;1.482;2022-09-03T08:22:59;4.32;;;3.10;;
39482;SDS011;25682;48.438;1.482;2022-09-03T08:25:26;6.28;;;2.80;;
39482;SDS011;25682;48.438;1.482;2022-09-03T08:27:52;6.47;;;3.03;;
39482;SDS011;25682;48.438;1.482;2022-09-03T08:30:18;5.85;;;3.15;;
39482;SDS011;25682;48.438;1.482;2022-09-03T08:32:45;4.32;;;2.67;;
39482;SDS011;25682;48.438;1.482;2022-09-03T08:35:12;8.18;;;3.58;;
39482;SDS011;25682;48.438;1.482;2022-09-03T08:37:38;8.70;;;3.22;;
39482;SDS011;25682;48.438;1.482;2022-09-03T08:40:04;5.38;;;2.90;;
39482;SDS011;25682;48.438;1.482;2022-09-03T08:42:43;4.45;;;2.55;;
39482;SDS011;25682;48.438;1.482;2022-09-03T08:45:15;3.15;;;2.22;;
39482;SDS011;25682;48.438;1.482;2022-09-03T08:47:51;6.13;;;2.60;;
39482;SDS011;25682;48.438;1.482;2022-09-03T08:56:29;4.18;;;1.90;;
39482;SDS011;25682;48.438;1.482;2022-09-03T08:58:56;5.28;;;2.20;;
39482;SDS011;25682;48.438;1.482;2022-09-03T09:17:01;2.40;;;2.05;;
39482;SDS011;25682;48.438;1.482;2022-09-03T09:20:14;5.53;;;1.92;;
39482;SDS011;25682;48.438;1.482;2022-09-03T09:22:37;5.40;;;1.65;;
39482;SDS011;25682;48.438;1.482;2022-09-03T09:25:14;1.77;;;1.35;;
39482;SDS011;25682;48.438;1.482;2022-09-03T09:27:46;2.42;;;1.90;;
39482;SDS011;25682;48.438;1.482;2022-09-03T09:30:15;4.43;;;2.10;;
39482;SDS011;25682;48.438;1.482;2022-09-03T09:32:42;4.18;;;1.60;;
39482;SDS011;25682;48.438;1.482;2022-09-03T09:35:09;1.70;;;1.60;;
39482;SDS011;25682;48.438;1.482;2022-09-03T09:37:45;4.05;;;1.80;;
39482;SDS011;25682;48.438;1.482;2022-09-03T09:40:20;1.67;;;1.40;;
39482;SDS011;25682;48.438;1.482;2022-09-03T09:42:47;2.25;;;1.50;;
39482;SDS011;25682;48.438;1.482;2022-09-03T09:45:13;2.50;;;1.60;;
39482;SDS011;25682;48.438;1.482;2022-09-03T09:47:39;2.50;;;1.80;;
39482;SDS011;25682;48.438;1.482;2022-09-03T09:50:15;3.40;;;1.60;;
39482;SDS011;25682;48.438;1.482;2022-09-03T09:52:41;5.57;;;1.75;;
39482;SDS011;25682;48.438;1.482;2022-09-03T09:55:13;4.97;;;1.50;;
39482;SDS011;25682;48.438;1.482;2022-09-03T09:57:41;2.67;;;1.30;;
39482;SDS011;25682;48.438;1.482;2022-09-03T10:00:11;3.38;;;1.60;;
39482;SDS011;25682;48.438;1.482;2022-09-03T10:02:38;3.83;;;1.80;;
39482;SDS011;25682;48.438;1.482;2022-09-03T10:07:38;4.68;;;1.90;;
39482;SDS011;25682;48.438;1.482;2022-09-03T10:12:40;15.48;;;5.30;;
39482;SDS011;25682;48.438;1.482;2022-09-03T10:17:56;28.58;;;9.77;;
39482;SDS011;25682;48.438;1.482;2022-09-03T10:25:54;84.32;;;34.90;;
39482;SDS011;25682;48.438;1.482;2022-09-03T10:28:15;77.68;;;36.28;;
39482;SDS011;25682;48.438;1.482;2022-09-03T10:30:46;89.88;;;42.22;;
39482;SDS011;25682;48.438;1.482;2022-09-03T10:33:18;92.38;;;42.95;;
39482;SDS011;25682;48.438;1.482;2022-09-03T10:35:59;90.22;;;43.20;;
39482;SDS011;25682;48.438;1.482;2022-09-03T10:38:33;92.65;;;40.58;;
39482;SDS011;25682;48.438;1.482;2022-09-03T10:49:13;75.18;;;33.42;;
39482;SDS011;25682;48.438;1.482;2022-09-03T10:51:23;66.70;;;31.52;;
39482;SDS011;25682;48.438;1.482;2022-09-03T11:07:06;48.70;;;25.25;;
39482;SDS011;25682;48.438;1.482;2022-09-03T11:12:07;51.38;;;24.00;;
39482;SDS011;25682;48.438;1.482;2022-09-03T11:14:37;48.15;;;23.50;;
39482;SDS011;25682;48.438;1.482;2022-09-03T11:17:11;43.10;;;22.13;;
39482;SDS011;25682;48.438;1.482;2022-09-03T11:19:41;43.33;;;21.05;;
39482;SDS011;25682;48.438;1.482;2022-09-03T11:22:11;45.85;;;20.00;;
39482;SDS011;25682;48.438;1.482;2022-09-03T11:24:40;40.10;;;19.35;;
39482;SDS011;25682;48.438;1.482;2022-09-03T11:27:21;40.05;;;18.48;;
39482;SDS011;25682;48.438;1.482;2022-09-03T11:29:57;41.80;;;18.30;;
39482;SDS011;25682;48.438;1.482;2022-09-03T11:32:31;36.90;;;17.05;;
39482;SDS011;25682;48.438;1.482;2022-09-03T11:35:00;30.58;;;15.35;;
39482;SDS011;25682;48.438;1.482;2022-09-03T11:37:29;31.83;;;15.45;;
39482;SDS011;25682;48.438;1.482;2022-09-03T11:39:56;33.80;;;15.75;;
39482;SDS011;25682;48.438;1.482;2022-09-03T11:42:26;30.63;;;15.38;;
39482;SDS011;25682;48.438;1.482;2022-09-03T11:44:58;34.38;;;14.15;;
39482;SDS011;25682;48.438;1.482;2022-09-03T11:47:36;25.73;;;13.35;;
39482;SDS011;25682;48.438;1.482;2022-09-03T11:50:05;29.15;;;12.20;;
39482;SDS011;25682;48.438;1.482;2022-09-03T11:52:32;24.45;;;13.15;;
39482;SDS011;25682;48.438;1.482;2022-09-03T11:55:04;25.92;;;12.13;;
39482;SDS011;25682;48.438;1.482;2022-09-03T11:57:30;25.67;;;12.45;;
39482;SDS011;25682;48.438;1.482;2022-09-03T12:00:13;25.83;;;12.23;;
39482;SDS011;25682;48.438;1.482;2022-09-03T12:02:43;23.52;;;11.23;;
39482;SDS011;25682;48.438;1.482;2022-09-03T12:05:20;20.73;;;10.27;;
39482;SDS011;25682;48.438;1.482;2022-09-03T12:10:35;24.60;;;11.30;;
39482;SDS011;25682;48.438;1.482;2022-09-03T12:18:02;21.90;;;9.15;;
39482;SDS011;25682;48.438;1.482;2022-09-03T12:21:05;16.60;;;8.00;;
39482;SDS011;25682;48.438;1.482;2022-09-03T12:23:46;16.30;;;7.95;;
39482;SDS011;25682;48.438;1.482;2022-09-03T12:28:47;21.25;;;8.80;;
39482;SDS011;25682;48.438;1.482;2022-09-03T12:33:48;12.85;;;7.68;;
39482;SDS011;25682;48.438;1.482;2022-09-03T12:36:15;13.75;;;7.20;;
39482;SDS011;25682;48.438;1.482;2022-09-03T12:38:41;16.80;;;7.55;;
39482;SDS011;25682;48.438;1.482;2022-09-03T12:41:24;14.93;;;6.57;;
39482;SDS011;25682;48.438;1.482;2022-09-03T12:43:58;11.82;;;6.15;;
39482;SDS011;25682;48.438;1.482;2022-09-03T12:46:34;10.67;;;6.10;;
39482;SDS011;25682;48.438;1.482;2022-09-03T12:49:04;13.18;;;6.43;;
39482;SDS011;25682;48.438;1.482;2022-09-03T12:51:38;15.05;;;6.82;;
39482;SDS011;25682;48.438;1.482;2022-09-03T12:54:05;12.43;;;6.20;;
39482;SDS011;25682;48.438;1.482;2022-09-03T12:56:37;17.33;;;6.40;;
39482;SDS011;25682;48.438;1.482;2022-09-03T12:59:05;10.57;;;5.93;;
39482;SDS011;25682;48.438;1.482;2022-09-03T13:01:32;10.02;;;5.88;;
39482;SDS011;25682;48.438;1.482;2022-09-03T13:04:13;11.85;;;5.25;;
39482;SDS011;25682;48.438;1.482;2022-09-03T13:06:52;10.27;;;5.03;;
39482;SDS011;25682;48.438;1.482;2022-09-03T13:09:23;11.43;;;5.97;;
39482;SDS011;25682;48.438;1.482;2022-09-03T13:11:51;9.52;;;4.82;;
39482;SDS011;25682;48.438;1.482;2022-09-03T13:14:19;8.27;;;4.65;;
39482;SDS011;25682;48.438;1.482;2022-09-03T13:24:15;10.00;;;4.72;;
39482;SDS011;25682;48.438;1.482;2022-09-03T13:31:44;6.75;;;3.85;;
39482;SDS011;25682;48.438;1.482;2022-09-03T13:34:20;7.43;;;3.92;;
39482;SDS011;25682;48.438;1.482;2022-09-03T13:36:50;10.27;;;3.78;;
39482;SDS011;25682;48.438;1.482;2022-09-03T13:39:25;6.25;;;3.72;;
39482;SDS011;25682;48.438;1.482;2022-09-03T13:52:44;7.13;;;3.10;;
39482;SDS011;25682;48.438;1.482;2022-09-03T13:55:13;4.50;;;3.03;;
39482;SDS011;25682;48.438;1.482;2022-09-03T13:57:54;7.15;;;3.60;;
39482;SDS011;25682;48.438;1.482;2022-09-03T14:00:33;12.18;;;3.63;;
39482;SDS011;25682;48.438;1.482;2022-09-03T14:03:05;5.28;;;3.50;;
39482;SDS011;25682;48.438;1.482;2022-09-03T14:05:37;5.47;;;3.13;;
39482;SDS011;25682;48.438;1.482;2022-09-03T14:08:24;5.53;;;2.83;;
39482;SDS011;25682;48.438;1.482;2022-09-03T14:11:04;3.70;;;2.55;;
39482;SDS011;25682;48.438;1.482;2022-09-03T14:16:07;4.93;;;2.90;;
39482;SDS011;25682;48.438;1.482;2022-09-03T14:24:18;3.53;;;2.60;;
39482;SDS011;25682;48.438;1.482;2022-09-03T14:26:49;6.70;;;2.30;;
39482;SDS011;25682;48.438;1.482;2022-09-03T14:29:16;4.43;;;2.47;;
39482;SDS011;25682;48.438;1.482;2022-09-03T14:35:11;4.82;;;2.60;;
39482;SDS011;25682;48.438;1.482;2022-09-03T14:40:46;3.50;;;2.35;;
39482;SDS011;25682;48.438;1.482;2022-09-03T14:42:43;4.90;;;3.43;;
39482;SDS011;25682;48.438;1.482;2022-09-03T14:47:50;5.75;;;3.15;;
39482;SDS011;25682;48.438;1.482;2022-09-03T14:58:41;11.67;;;2.77;;
39482;SDS011;25682;48.438;1.482;2022-09-03T15:01:12;9.90;;;2.72;;
39482;SDS011;25682;48.438;1.482;2022-09-03T15:11:55;5.85;;;3.15;;
39482;SDS011;25682;48.438;1.482;2022-09-03T15:19:42;10.52;;;2.65;;
39482;SDS011;25682;48.438;1.482;2022-09-03T15:24:47;7.18;;;2.58;;
39482;SDS011;25682;48.438;1.482;2022-09-03T15:35:17;20.75;;;4.10;;
39482;SDS011;25682;48.438;1.482;2022-09-03T15:37:51;12.65;;;3.22;;
39482;SDS011;25682;48.438;1.482;2022-09-03T15:42:46;23.15;;;4.05;;
39482;SDS011;25682;48.438;1.482;2022-09-03T15:45:18;10.30;;;2.58;;
39482;SDS011;25682;48.438;1.482;2022-09-03T15:53:14;9.43;;;2.97;;
39482;SDS011;25682;48.438;1.482;2022-09-03T15:55:43;3.13;;;2.20;;
39482;SDS011;25682;48.438;1.482;2022-09-03T15:58:30;4.43;;;2.38;;
39482;SDS011;25682;48.438;1.482;2022-09-03T16:11:17;5.60;;;2.50;;
39482;SDS011;25682;48.438;1.482;2022-09-03T16:24:17;5.45;;;2.58;;
39482;SDS011;25682;48.438;1.482;2022-09-03T16:29:12;4.88;;;2.83;;
39482;SDS011;25682;48.438;1.482;2022-09-03T16:31:45;3.67;;;2.45;;
39482;SDS011;25682;48.438;1.482;2022-09-03T16:44:38;4.10;;;2.25;;
39482;SDS011;25682;48.438;1.482;2022-09-03T16:47:16;4.18;;;2.10;;
39482;SDS011;25682;48.438;1.482;2022-09-03T16:57:27;2.75;;;2.30;;
39482;SDS011;25682;48.438;1.482;2022-09-03T17:00:04;4.70;;;2.70;;
39482;SDS011;25682;48.438;1.482;2022-09-03T17:15:52;2.88;;;2.20;;
39482;SDS011;25682;48.438;1.482;2022-09-03T17:18:35;3.20;;;2.83;;
39482;SDS011;25682;48.438;1.482;2022-09-03T17:23:14;3.90;;;3.40;;
39482;SDS011;25682;48.438;1.482;2022-09-03T17:28:54;4.18;;;2.55;;
39482;SDS011;25682;48.438;1.482;2022-09-03T17:31:41;2.53;;;2.17;;
39482;SDS011;25682;48.438;1.482;2022-09-03T17:36:58;3.33;;;2.40;;
39482;SDS011;25682;48.438;1.482;2022-09-03T17:44:45;7.63;;;2.97;;
39482;SDS011;25682;48.438;1.482;2022-09-03T17:52:36;7.28;;;2.15;;
39482;SDS011;25682;48.438;1.482;2022-09-03T17:55:11;4.10;;;2.80;;
39482;SDS011;25682;48.438;1.482;2022-09-03T17:57:39;4.70;;;2.38;;
39482;SDS011;25682;48.438;1.482;2022-09-03T18:00:08;7.55;;;2.60;;
39482;SDS011;25682;48.438;1.482;2022-09-03T18:05:17;6.13;;;2.67;;
39482;SDS011;25682;48.438;1.482;2022-09-03T18:07:49;8.10;;;2.85;;
39482;SDS011;25682;48.438;1.482;2022-09-03T18:12:48;6.13;;;2.63;;
39482;SDS011;25682;48.438;1.482;2022-09-03T18:17:52;4.70;;;2.58;;
39482;SDS011;25682;48.438;1.482;2022-09-03T18:20:20;5.55;;;3.75;;
39482;SDS011;25682;48.438;1.482;2022-09-03T18:26:27;9.40;;;4.93;;
39482;SDS011;25682;48.438;1.482;2022-09-03T18:29:14;13.40;;;7.30;;
39482;SDS011;25682;48.438;1.482;2022-09-03T18:31:59;10.25;;;7.30;;
39482;SDS011;25682;48.438;1.482;2022-09-03T18:34:44;12.00;;;7.78;;
39482;SDS011;25682;48.438;1.482;2022-09-03T18:37:30;10.40;;;6.15;;
39482;SDS011;25682;48.438;1.482;2022-09-03T18:40:16;7.57;;;5.45;;
39482;SDS011;25682;48.438;1.482;2022-09-03T18:43:04;11.23;;;5.75;;
39482;SDS011;25682;48.438;1.482;2022-09-03T18:45:54;12.43;;;6.15;;
39482;SDS011;25682;48.438;1.482;2022-09-03T18:48:45;15.00;;;5.65;;
39482;SDS011;25682;48.438;1.482;2022-09-03T18:57:07;10.93;;;6.45;;
39482;SDS011;25682;48.438;1.482;2022-09-03T19:00:04;9.18;;;6.97;;
39482;SDS011;25682;48.438;1.482;2022-09-03T19:02:59;6.97;;;5.63;;
39482;SDS011;25682;48.438;1.482;2022-09-03T19:08:43;13.90;;;6.28;;
39482;SDS011;25682;48.438;1.482;2022-09-03T19:14:25;14.07;;;7.00;;
39482;SDS011;25682;48.438;1.482;2022-09-03T19:20:08;9.63;;;6.32;;
39482;SDS011;25682;48.438;1.482;2022-09-03T19:25:42;10.32;;;6.38;;
39482;SDS011;25682;48.438;1.482;2022-09-03T19:28:30;16.17;;;6.32;;
39482;SDS011;25682;48.438;1.482;2022-09-03T19:37:14;13.05;;;6.22;;
39482;SDS011;25682;48.438;1.482;2022-09-03T19:43:09;10.32;;;5.88;;
39482;SDS011;25682;48.438;1.482;2022-09-03T19:51:38;6.28;;;4.70;;
39482;SDS011;25682;48.438;1.482;2022-09-03T19:54:25;6.25;;;4.82;;
39482;SDS011;25682;48.438;1.482;2022-09-03T19:57:12;9.25;;;5.20;;
39482;SDS011;25682;48.438;1.482;2022-09-03T19:59:58;5.40;;;4.10;;
39482;SDS011;25682;48.438;1.482;2022-09-03T20:05:28;7.00;;;4.40;;
39482;SDS011;25682;48.438;1.482;2022-09-03T20:08:12;5.40;;;4.37;;
39482;SDS011;25682;48.438;1.482;2022-09-03T20:10:59;6.18;;;4.22;;
39482;SDS011;25682;48.438;1.482;2022-09-03T20:13:26;7.60;;;4.45;;
39482;SDS011;25682;48.438;1.482;2022-09-03T20:16:16;5.22;;;4.20;;
39482;SDS011;25682;48.438;1.482;2022-09-03T20:18:52;6.32;;;4.00;;
39482;SDS011;25682;48.438;1.482;2022-09-03T20:26:45;5.32;;;4.13;;
39482;SDS011;25682;48.438;1.482;2022-09-03T20:31:46;7.15;;;3.97;;
39482;SDS011;25682;48.438;1.482;2022-09-03T20:47:42;4.75;;;3.38;;
39482;SDS011;25682;48.438;1.482;2022-09-03T20:53:01;8.93;;;3.97;;
39482;SDS011;25682;48.438;1.482;2022-09-03T20:55:43;6.85;;;4.00;;
39482;SDS011;25682;48.438;1.482;2022-09-03T20:58:12;4.10;;;3.58;;
39482;SDS011;25682;48.438;1.482;2022-09-03T21:00:50;7.78;;;4.20;;
39482;SDS011;25682;48.438;1.482;2022-09-03T21:03:21;5.13;;;3.35;;
39482;SDS011;25682;48.438;1.482;2022-09-03T21:18:57;7.95;;;4.07;;
39482;SDS011;25682;48.438;1.482;2022-09-03T21:24:03;7.00;;;3.42;;
39482;SDS011;25682;48.438;1.482;2022-09-03T21:26:38;8.48;;;3.30;;
39482;SDS011;25682;48.438;1.482;2022-09-03T21:29:26;8.75;;;5.28;;
39482;SDS011;25682;48.438;1.482;2022-09-03T21:34:40;19.10;;;5.60;;
39482;SDS011;25682;48.438;1.482;2022-09-03T21:37:09;6.90;;;3.90;;